createdAt,value
2017-11-07T00:01:55.649Z,99.90
2017-11-07T00:04:23.162Z,99.90
2017-11-07T00:06:51.490Z,99.90
2017-11-07T00:09:19.075Z,99.90
2017-11-07T00:11:46.577Z,99.90
2017-11-07T00:14:14.106Z,99.90
2017-11-07T00:16:41.617Z,99.90
2017-11-07T00:19:09.117Z,99.90
2017-11-07T00:21:36.651Z,99.90
2017-11-07T00:24:04.156Z,99.90
2017-11-07T00:26:32.426Z,99.90
2017-11-07T00:28:59.970Z,99.90
2017-11-07T00:31:27.479Z,99.90
2017-11-07T00:33:54.990Z,99.90
2017-11-07T00:36:22.525Z,99.90
2017-11-07T00:38:50.033Z,99.90
2017-11-07T00:41:18.343Z,99.90
2017-11-07T00:43:45.861Z,99.90
2017-11-07T00:46:13.360Z,99.90
2017-11-07T00:48:40.905Z,99.90
2017-11-07T00:51:09.175Z,99.90
2017-11-07T00:53:37.444Z,99.90
2017-11-07T00:56:05.005Z,99.90
2017-11-07T00:58:33.276Z,99.90
2017-11-07T01:01:01.582Z,99.90
2017-11-07T01:03:29.113Z,99.90
2017-11-07T01:05:56.620Z,99.90
2017-11-07T01:08:24.125Z,99.90
2017-11-07T01:10:51.656Z,99.90
2017-11-07T01:13:19.165Z,99.90
2017-11-07T01:15:47.452Z,99.90
2017-11-07T01:18:14.980Z,99.90
2017-11-07T01:20:42.492Z,99.90
2017-11-07T01:23:10.019Z,99.90
2017-11-07T01:25:37.520Z,99.90
2017-11-07T01:28:05.049Z,99.90
2017-11-07T01:30:33.330Z,99.90
2017-11-07T01:33:00.829Z,99.90
2017-11-07T01:35:28.369Z,99.90
2017-11-07T01:37:55.877Z,99.90
2017-11-07T01:40:23.386Z,99.90
2017-11-07T01:42:50.920Z,99.90
2017-11-07T01:45:19.263Z,99.90
2017-11-07T01:47:46.797Z,99.90
2017-11-07T01:50:14.296Z,99.90
2017-11-07T01:52:41.805Z,99.90
2017-11-07T01:55:09.326Z,99.90
2017-11-07T01:57:37.613Z,99.90
2017-11-07T02:00:05.889Z,99.90
2017-11-07T02:02:34.207Z,99.90
2017-11-07T02:05:01.770Z,99.90
2017-11-07T02:07:29.281Z,99.90
2017-11-07T02:09:57.585Z,99.90
2017-11-07T02:12:25.356Z,99.90
2017-11-07T02:14:52.864Z,99.90
2017-11-07T02:17:20.404Z,99.90
2017-11-07T02:19:47.921Z,99.90
2017-11-07T02:22:15.435Z,99.90
2017-11-07T02:24:42.988Z,99.90
2017-11-07T02:27:10.493Z,99.90
2017-11-07T02:29:38.001Z,99.90
2017-11-07T02:32:05.534Z,99.90
2017-11-07T02:34:33.037Z,99.90
2017-11-07T02:37:00.546Z,99.90
2017-11-07T02:39:28.106Z,99.90
2017-11-07T02:41:55.612Z,99.90
2017-11-07T02:44:23.113Z,99.90
2017-11-07T02:46:50.640Z,99.90
2017-11-07T02:49:18.142Z,99.90
2017-11-07T02:51:45.645Z,99.90
2017-11-07T02:54:13.179Z,99.90
2017-11-07T02:56:40.676Z,99.90
2017-11-07T02:59:08.168Z,99.90
2017-11-07T03:01:35.721Z,99.90
2017-11-07T03:04:03.307Z,99.90
2017-11-07T03:06:30.898Z,99.90
2017-11-07T03:08:58.450Z,99.90
2017-11-07T03:11:25.952Z,99.90
2017-11-07T03:13:53.465Z,99.90
2017-11-07T03:16:20.997Z,99.90
2017-11-07T03:18:48.640Z,99.90
2017-11-07T03:21:16.933Z,99.90
2017-11-07T03:23:44.442Z,99.90
2017-11-07T03:26:11.945Z,99.90
2017-11-07T03:28:39.473Z,99.90
2017-11-07T03:31:07.238Z,99.90
2017-11-07T03:33:34.750Z,99.90
2017-11-07T03:36:02.872Z,99.90
2017-11-07T03:38:30.392Z,99.90
2017-11-07T03:40:57.909Z,99.90
2017-11-07T03:43:25.436Z,99.90
2017-11-07T03:45:52.932Z,99.90
2017-11-07T03:48:21.206Z,99.90
2017-11-07T03:50:49.505Z,99.90
2017-11-07T03:53:17.013Z,99.90
2017-11-07T03:55:44.528Z,99.90
2017-11-07T03:58:12.061Z,99.90
2017-11-07T04:00:40.329Z,99.90
2017-11-07T04:03:08.596Z,99.90
2017-11-07T04:05:36.123Z,99.90
2017-11-07T04:08:03.628Z,99.90
2017-11-07T04:10:31.134Z,99.90
2017-11-07T04:12:58.669Z,99.90
2017-11-07T04:15:28.138Z,99.90
2017-11-07T04:17:55.682Z,99.90
2017-11-07T04:20:23.189Z,99.90
2017-11-07T04:22:50.694Z,99.90
2017-11-07T04:25:18.223Z,99.90
2017-11-07T04:27:45.721Z,99.90
2017-11-07T04:30:13.221Z,99.90
2017-11-07T04:32:40.753Z,99.90
2017-11-07T04:35:08.264Z,99.90
2017-11-07T04:37:35.765Z,99.90
2017-11-07T04:40:03.287Z,99.90
2017-11-07T04:42:30.781Z,99.90
2017-11-07T04:44:58.314Z,99.90
2017-11-07T04:47:25.819Z,99.90
2017-11-07T04:49:54.092Z,99.90
2017-11-07T04:52:22.378Z,99.90
2017-11-07T04:54:50.648Z,99.90
2017-11-07T04:57:18.944Z,99.90
2017-11-07T04:59:46.453Z,99.90
2017-11-07T05:02:13.952Z,99.90
2017-11-07T05:04:41.474Z,99.90
2017-11-07T05:07:08.995Z,99.90
2017-11-07T05:09:36.520Z,99.90
2017-11-07T05:12:04.055Z,99.90
2017-11-07T05:14:31.557Z,99.90
2017-11-07T05:16:59.822Z,99.90
2017-11-07T05:19:28.133Z,99.90
2017-11-07T05:21:55.627Z,99.90
2017-11-07T05:24:23.128Z,99.90
2017-11-07T05:26:51.443Z,99.90
2017-11-07T05:29:18.983Z,99.90
2017-11-07T05:31:46.597Z,99.90
2017-11-07T05:34:14.252Z,99.90
2017-11-07T05:36:41.758Z,99.90
2017-11-07T05:39:09.261Z,99.90
2017-11-07T05:41:36.793Z,99.90
2017-11-07T05:44:04.303Z,99.90
2017-11-07T05:46:32.568Z,99.90
2017-11-07T05:49:00.089Z,99.90
2017-11-07T05:51:27.593Z,99.90
2017-11-07T05:53:55.096Z,99.90
2017-11-07T05:56:22.702Z,99.90
2017-11-07T05:58:52.190Z,99.90
2017-11-07T06:01:19.713Z,99.90
2017-11-07T06:03:47.254Z,99.90
2017-11-07T06:06:14.764Z,99.90
2017-11-07T06:08:42.336Z,99.90
2017-11-07T06:11:09.857Z,99.90
2017-11-07T06:13:37.900Z,99.90
2017-11-07T06:16:06.383Z,99.90
2017-11-07T06:18:35.368Z,99.90
2017-11-07T06:21:03.652Z,99.90
2017-11-07T06:23:31.182Z,99.90
2017-11-07T06:25:58.726Z,99.90
2017-11-07T06:28:26.232Z,99.90
2017-11-07T06:30:54.582Z,99.90
2017-11-07T06:33:22.090Z,99.90
2017-11-07T06:35:50.365Z,99.90
2017-11-07T06:38:18.746Z,99.90
2017-11-07T06:40:46.240Z,99.90
2017-11-07T06:43:13.742Z,99.90
2017-11-07T06:45:41.265Z,99.90
2017-11-07T06:48:08.765Z,99.90
2017-11-07T06:50:37.228Z,99.90
2017-11-07T06:53:04.725Z,99.90
2017-11-07T06:55:32.317Z,99.90
2017-11-07T06:57:59.863Z,99.90
2017-11-07T07:00:27.363Z,99.90
2017-11-07T07:02:54.857Z,99.90
2017-11-07T07:05:23.145Z,99.90
2017-11-07T07:07:50.646Z,99.90
2017-11-07T07:10:18.184Z,99.90
2017-11-07T07:12:45.782Z,99.90
2017-11-07T07:15:13.300Z,99.90
2017-11-07T07:17:40.833Z,99.90
2017-11-07T07:20:09.099Z,99.90
2017-11-07T07:22:37.360Z,99.90
2017-11-07T07:25:04.887Z,99.90
2017-11-07T07:27:32.418Z,99.90
2017-11-07T07:29:59.912Z,99.90
2017-11-07T07:32:27.432Z,99.90
2017-11-07T07:34:54.933Z,99.90
2017-11-07T07:37:22.433Z,99.90
2017-11-07T07:39:50.722Z,99.90
2017-11-07T07:42:18.225Z,99.90
2017-11-07T07:44:45.736Z,99.90
2017-11-07T07:47:14.044Z,99.90
2017-11-07T07:49:41.548Z,99.90
2017-11-07T07:52:09.057Z,99.90
2017-11-07T07:54:36.585Z,99.90
2017-11-07T07:57:04.857Z,99.90
2017-11-07T07:59:33.174Z,99.90
2017-11-07T08:02:00.676Z,99.90
2017-11-07T08:04:28.186Z,99.90
2017-11-07T08:06:55.717Z,99.90
2017-11-07T08:09:23.986Z,99.90
2017-11-07T08:11:51.544Z,99.90
2017-11-07T08:14:19.063Z,99.90
2017-11-07T08:16:46.577Z,99.90
2017-11-07T08:19:14.875Z,99.90
2017-11-07T08:21:42.388Z,99.90
2017-11-07T08:24:09.894Z,99.90
2017-11-07T08:26:37.421Z,99.90
2017-11-07T08:29:04.934Z,99.90
2017-11-07T08:31:32.461Z,99.90
2017-11-07T08:34:00.724Z,99.90
2017-11-07T08:36:28.234Z,99.90
2017-11-07T08:38:55.776Z,99.90
2017-11-07T08:41:23.282Z,99.90
2017-11-07T08:43:50.785Z,99.90
2017-11-07T08:46:18.342Z,99.90
2017-11-07T08:48:45.847Z,99.90
2017-11-07T08:51:13.364Z,99.90
2017-11-07T08:53:40.909Z,99.90
2017-11-07T08:56:09.185Z,99.90
2017-11-07T08:58:37.462Z,99.90
2017-11-07T09:01:05.764Z,99.90
2017-11-07T09:03:33.734Z,99.90
2017-11-07T09:06:01.245Z,99.90
2017-11-07T09:08:28.775Z,99.90
2017-11-07T09:10:56.281Z,99.90
2017-11-07T09:13:23.783Z,99.90
2017-11-07T09:15:51.317Z,99.90
2017-11-07T09:18:18.821Z,99.90
2017-11-07T09:20:46.340Z,99.90
2017-11-07T09:23:13.892Z,99.90
2017-11-07T09:25:42.170Z,99.90
2017-11-07T09:28:09.692Z,99.90
2017-11-07T09:30:37.236Z,99.90
2017-11-07T09:33:04.749Z,99.90
2017-11-07T09:35:32.271Z,99.90
2017-11-07T09:37:59.809Z,99.90
2017-11-07T09:40:27.333Z,99.90
2017-11-07T09:42:54.845Z,99.90
2017-11-07T09:45:22.387Z,99.90
2017-11-07T09:47:49.900Z,99.90
2017-11-07T09:50:18.176Z,99.90
2017-11-07T09:52:46.469Z,99.90
2017-11-07T09:55:13.978Z,99.90
2017-11-07T09:57:41.482Z,99.90
2017-11-07T10:00:09.012Z,99.90
2017-11-07T10:02:36.519Z,99.90
2017-11-07T10:05:04.065Z,99.90
2017-11-07T10:07:31.579Z,99.90
2017-11-07T10:09:59.870Z,99.90
2017-11-07T10:12:28.184Z,99.90
2017-11-07T10:14:55.706Z,99.90
2017-11-07T10:17:23.212Z,99.90
2017-11-07T10:19:50.805Z,99.90
2017-11-07T10:22:18.313Z,99.90
2017-11-07T10:24:45.824Z,99.90
2017-11-07T10:27:13.350Z,99.90
2017-11-07T10:29:40.901Z,99.90
2017-11-07T10:32:08.412Z,99.90
2017-11-07T10:34:35.956Z,99.90
2017-11-07T10:37:03.463Z,99.90
2017-11-07T10:39:31.742Z,99.90
2017-11-07T10:41:59.291Z,99.90
2017-11-07T10:44:27.582Z,99.90
2017-11-07T10:46:55.866Z,99.90
2017-11-07T10:49:23.413Z,99.90
2017-11-07T10:51:51.694Z,99.90
2017-11-07T10:54:19.215Z,99.90
2017-11-07T10:56:46.750Z,99.90
2017-11-07T10:59:14.263Z,99.90
2017-11-07T11:01:41.769Z,99.90
2017-11-07T11:04:09.305Z,99.90
2017-11-07T11:06:36.813Z,99.90
2017-11-07T11:09:04.321Z,99.90
2017-11-07T11:11:31.857Z,99.90
2017-11-07T11:14:00.134Z,99.90
2017-11-07T11:16:28.413Z,99.90
2017-11-07T11:18:56.716Z,99.90
2017-11-07T11:21:24.221Z,99.90
2017-11-07T11:23:51.770Z,99.90
2017-11-07T11:26:19.314Z,99.90
2017-11-07T11:28:46.826Z,99.90
2017-11-07T11:31:14.408Z,99.90
2017-11-07T11:33:41.949Z,99.90
2017-11-07T11:36:09.459Z,99.90
2017-11-07T11:38:36.966Z,99.90
2017-11-07T11:41:05.270Z,99.90
2017-11-07T11:43:32.784Z,99.90
2017-11-07T11:46:00.292Z,99.90
2017-11-07T11:48:27.834Z,99.90
2017-11-07T11:50:56.110Z,99.90
2017-11-07T11:53:24.423Z,99.90
2017-11-07T11:55:51.944Z,99.90
2017-11-07T11:58:19.444Z,99.90
2017-11-07T12:00:46.982Z,99.90
2017-11-07T12:03:14.489Z,99.90
2017-11-07T12:05:41.997Z,99.90
2017-11-07T12:08:09.533Z,99.90
2017-11-07T12:10:37.816Z,99.30
2017-11-07T12:13:06.094Z,99.90
2017-11-07T12:15:34.398Z,99.80
2017-11-07T12:18:01.916Z,99.80
2017-11-07T12:20:29.465Z,99.40
2017-11-07T12:22:56.993Z,99.30
2017-11-07T12:25:24.502Z,99.30
2017-11-07T12:27:52.050Z,99.50
2017-11-07T12:30:19.622Z,99.50
2017-11-07T12:32:47.171Z,99.50
2017-11-07T12:35:14.686Z,99.70
2017-11-07T12:37:42.196Z,99.50
2017-11-07T12:40:09.766Z,99.30
2017-11-07T12:42:38.056Z,99.30
2017-11-07T12:45:05.574Z,99.30
2017-11-07T12:47:33.117Z,98.70
2017-11-07T12:50:12.372Z,98.80
2017-11-07T12:52:39.998Z,98.90
2017-11-07T12:55:07.516Z,99.10
2017-11-07T12:57:35.805Z,99.30
2017-11-07T13:00:04.111Z,99.20
2017-11-07T13:02:31.618Z,99.20
2017-11-07T13:04:59.129Z,99.50
2017-11-07T13:07:26.669Z,99.90
2017-11-07T13:09:54.191Z,99.90
2017-11-07T13:12:21.716Z,99.90
2017-11-07T13:14:49.271Z,99.90
2017-11-07T13:17:16.784Z,99.90
2017-11-07T13:19:44.297Z,99.90
2017-11-07T13:22:11.845Z,99.90
2017-11-07T13:24:39.370Z,99.90
2017-11-07T13:27:07.682Z,99.90
2017-11-07T13:29:35.199Z,99.90
2017-11-07T13:32:03.471Z,99.90
2017-11-07T13:34:31.008Z,99.90
2017-11-07T13:36:58.511Z,99.90
2017-11-07T13:39:26.801Z,99.90
2017-11-07T13:41:54.348Z,99.90
2017-11-07T13:44:22.624Z,99.90
2017-11-07T13:46:50.920Z,99.90
2017-11-07T13:49:18.448Z,99.90
2017-11-07T13:51:45.962Z,99.90
2017-11-07T13:54:13.481Z,99.90
2017-11-07T13:56:41.783Z,99.90
2017-11-07T13:59:09.287Z,99.90
2017-11-07T14:01:36.836Z,99.90
2017-11-07T14:04:04.357Z,99.90
2017-11-07T14:06:31.901Z,99.90
2017-11-07T14:08:59.451Z,99.90
2017-11-07T14:11:27.734Z,99.90
2017-11-07T14:13:56.010Z,99.90
2017-11-07T14:16:24.316Z,99.90
2017-11-07T14:18:51.826Z,99.90
2017-11-07T14:21:19.360Z,99.90
2017-11-07T14:23:46.921Z,99.90
2017-11-07T14:26:14.428Z,99.90
2017-11-07T14:28:41.950Z,99.90
2017-11-07T14:31:09.497Z,99.90
2017-11-07T14:33:37.004Z,99.90
2017-11-07T14:36:04.529Z,99.90
2017-11-07T14:38:32.073Z,99.90
2017-11-07T14:40:59.577Z,99.90
2017-11-07T14:43:27.096Z,99.90
2017-11-07T14:45:54.653Z,99.90
2017-11-07T14:48:22.177Z,99.90
2017-11-07T14:50:49.684Z,99.90
2017-11-07T14:53:17.227Z,99.90
2017-11-07T14:55:44.736Z,99.90
2017-11-07T14:58:13.004Z,99.90
2017-11-07T15:00:40.545Z,99.90
2017-11-07T15:03:08.824Z,99.90
2017-11-07T15:05:36.372Z,99.90
2017-11-07T15:08:03.877Z,99.90
2017-11-07T15:10:31.376Z,99.90
2017-11-07T15:12:58.912Z,99.90
2017-11-07T15:15:26.439Z,99.90
2017-11-07T15:17:54.713Z,99.90
2017-11-07T15:20:22.267Z,99.90
2017-11-07T15:22:49.776Z,99.90
2017-11-07T15:25:17.290Z,99.90
2017-11-07T15:27:44.825Z,99.90
2017-11-07T15:30:12.354Z,99.90
2017-11-07T15:32:39.892Z,99.90
2017-11-07T15:35:08.169Z,99.90
2017-11-07T15:37:36.444Z,99.90
2017-11-07T15:40:04.740Z,99.90
2017-11-07T15:42:32.254Z,99.90
2017-11-07T15:44:59.782Z,99.90
2017-11-07T15:47:27.291Z,99.90
2017-11-07T15:49:55.563Z,99.90
2017-11-07T15:52:23.870Z,99.90
2017-11-07T15:54:51.384Z,99.90
2017-11-07T15:57:18.903Z,99.90
2017-11-07T15:59:46.436Z,99.90
2017-11-07T16:02:14.705Z,99.90
2017-11-07T16:04:42.982Z,99.90
2017-11-07T16:07:11.279Z,99.90
2017-11-07T16:09:38.843Z,99.90
2017-11-07T16:12:06.352Z,99.90
2017-11-07T16:14:33.872Z,99.90
2017-11-07T16:17:01.386Z,99.90
2017-11-07T16:19:28.929Z,99.90
2017-11-07T16:21:56.424Z,99.90
2017-11-07T16:24:24.700Z,99.90
2017-11-07T16:26:52.995Z,99.90
2017-11-07T16:29:20.512Z,99.90
2017-11-07T16:31:48.034Z,99.90
2017-11-07T16:34:15.567Z,99.90
2017-11-07T16:36:43.081Z,99.90
2017-11-07T16:39:10.593Z,99.90
2017-11-07T16:41:38.121Z,99.90
2017-11-07T16:44:06.400Z,99.90
2017-11-07T16:46:34.701Z,99.90
2017-11-07T16:49:02.230Z,99.90
2017-11-07T16:51:29.732Z,99.90
2017-11-07T16:53:57.261Z,99.90
2017-11-07T16:56:25.543Z,99.90
2017-11-07T16:58:53.822Z,99.90
2017-11-07T17:01:22.276Z,99.90
2017-11-07T17:03:49.788Z,99.90
2017-11-07T17:06:17.465Z,99.90
2017-11-07T17:08:45.016Z,99.90
2017-11-07T17:11:12.781Z,99.90
2017-11-07T17:13:40.355Z,99.90
2017-11-07T17:16:08.207Z,99.90
2017-11-07T17:18:35.720Z,99.90
2017-11-07T17:21:03.225Z,99.90
2017-11-07T17:23:30.956Z,99.90
2017-11-07T17:25:58.510Z,99.90
2017-11-07T17:28:26.051Z,99.90
2017-11-07T17:30:53.593Z,99.90
2017-11-07T17:33:21.117Z,99.90
2017-11-07T17:35:48.862Z,99.90
2017-11-07T17:38:16.396Z,99.90
2017-11-07T17:40:43.900Z,99.90
2017-11-07T17:43:11.437Z,99.90
2017-11-07T17:45:38.963Z,99.90
2017-11-07T17:48:06.507Z,99.90
2017-11-07T17:50:34.017Z,99.90
2017-11-07T17:53:02.378Z,99.90
2017-11-07T17:55:30.019Z,99.90
2017-11-07T17:57:57.630Z,99.90
2017-11-07T18:00:25.193Z,99.90
2017-11-07T18:02:52.704Z,99.90
2017-11-07T18:05:20.245Z,99.90
2017-11-07T18:07:47.760Z,99.90
2017-11-07T18:10:16.034Z,99.90
2017-11-07T18:12:43.713Z,99.90
2017-11-07T18:15:11.237Z,99.90
2017-11-07T18:17:38.742Z,99.90
2017-11-07T18:20:06.305Z,99.90
2017-11-07T18:22:33.817Z,99.90
2017-11-07T18:25:01.367Z,99.90
2017-11-07T18:27:28.912Z,99.90
2017-11-07T18:29:57.293Z,99.90
2017-11-07T18:32:24.824Z,99.90
2017-11-07T18:34:52.451Z,99.90
2017-11-07T18:37:19.973Z,99.90
2017-11-07T18:39:47.592Z,99.90
2017-11-07T18:42:15.242Z,99.90
2017-11-07T18:44:43.570Z,99.90
2017-11-07T18:47:11.330Z,99.90
2017-11-07T18:49:38.845Z,99.90
2017-11-07T18:52:07.124Z,99.90
2017-11-07T18:54:34.701Z,99.90
2017-11-07T18:57:02.319Z,99.90
2017-11-07T18:59:29.834Z,99.90
2017-11-07T19:01:57.474Z,99.90
2017-11-07T19:04:25.029Z,99.90
2017-11-07T19:06:52.668Z,99.90
2017-11-07T19:09:20.605Z,99.90
2017-11-07T19:11:48.187Z,99.90
2017-11-07T19:14:15.794Z,99.90
2017-11-07T19:16:43.372Z,99.90
2017-11-07T19:19:11.026Z,99.90
2017-11-07T19:21:38.773Z,99.90
2017-11-07T19:24:06.428Z,99.90
2017-11-07T19:26:34.710Z,99.90
2017-11-07T19:29:03.005Z,99.90
2017-11-07T19:31:30.545Z,99.90
2017-11-07T19:33:58.082Z,99.90
2017-11-07T19:36:25.747Z,99.90
2017-11-07T19:38:53.274Z,99.90
2017-11-07T19:41:21.442Z,99.90
2017-11-07T19:43:49.325Z,99.90
2017-11-07T19:46:16.975Z,99.90
2017-11-07T19:48:44.622Z,99.90
2017-11-07T19:51:12.606Z,99.90
2017-11-07T19:53:40.708Z,99.90
2017-11-07T19:56:08.896Z,99.90
2017-11-07T19:58:36.809Z,99.90
2017-11-07T20:01:04.547Z,99.90
2017-11-07T20:03:32.182Z,99.90
2017-11-07T20:06:00.564Z,99.90
2017-11-07T20:08:30.487Z,99.90
2017-11-07T20:10:59.268Z,99.90
2017-11-07T20:13:26.881Z,99.90
2017-11-07T20:15:54.775Z,99.90
2017-11-07T20:18:22.644Z,99.90
2017-11-07T20:20:50.426Z,99.90
2017-11-07T20:23:18.376Z,99.90
2017-11-07T20:25:47.276Z,99.90
2017-11-07T20:28:15.192Z,99.90
2017-11-07T20:30:43.102Z,99.90
2017-11-07T20:33:11.480Z,99.90
2017-11-07T20:35:39.370Z,99.90
2017-11-07T20:38:06.961Z,99.90
2017-11-07T20:40:35.796Z,99.90
2017-11-07T20:43:04.225Z,99.90
2017-11-07T20:45:32.720Z,99.90
2017-11-07T20:48:01.374Z,99.90
2017-11-07T20:50:29.879Z,99.90
2017-11-07T20:52:59.283Z,99.90
2017-11-07T20:55:28.013Z,99.90
2017-11-07T20:57:55.592Z,99.90
2017-11-07T21:00:24.428Z,99.90
2017-11-07T21:02:52.681Z,99.90
2017-11-07T21:05:20.209Z,99.90
2017-11-07T21:07:48.101Z,99.90
2017-11-07T21:10:16.418Z,99.90
2017-11-07T21:12:44.709Z,99.90
2017-11-07T21:15:12.279Z,99.90
2017-11-07T21:17:39.823Z,99.90
2017-11-07T21:20:08.161Z,99.90
2017-11-07T21:22:35.722Z,99.90
2017-11-07T21:25:03.241Z,99.90
2017-11-07T21:27:30.774Z,99.90
2017-11-07T21:29:58.307Z,99.90
2017-11-07T21:32:26.251Z,99.90
2017-11-07T21:34:56.529Z,99.90
2017-11-07T21:37:24.058Z,99.90
2017-11-07T21:39:51.564Z,99.90
2017-11-07T21:42:19.108Z,99.90
2017-11-07T21:44:47.401Z,99.90
2017-11-07T21:47:14.945Z,99.90
2017-11-07T21:49:43.254Z,99.90
2017-11-07T21:52:10.758Z,99.90
2017-11-07T21:54:38.260Z,99.90
2017-11-07T21:57:05.800Z,99.90
2017-11-07T21:59:34.073Z,99.90
2017-11-07T22:02:02.345Z,99.90
2017-11-07T22:04:30.643Z,99.90
2017-11-07T22:06:58.178Z,99.90
2017-11-07T22:09:25.689Z,99.90
2017-11-07T22:11:54.986Z,99.90
2017-11-07T22:14:22.531Z,99.90
2017-11-07T22:16:53.873Z,99.90
2017-11-07T22:19:21.397Z,99.90
2017-11-07T22:21:49.717Z,99.90
2017-11-07T22:24:17.247Z,99.90
2017-11-07T22:26:44.752Z,99.90
2017-11-07T22:29:12.281Z,99.90
2017-11-07T22:31:40.581Z,99.90
2017-11-07T22:34:08.085Z,99.90
2017-11-07T22:36:35.596Z,99.90
2017-11-07T22:39:03.138Z,99.90
2017-11-07T22:41:30.661Z,99.90
2017-11-07T22:43:58.171Z,99.90
2017-11-07T22:46:25.700Z,99.90
2017-11-07T22:48:53.972Z,99.90
2017-11-07T22:51:22.245Z,99.90
2017-11-07T22:53:49.789Z,99.90
2017-11-07T22:56:17.301Z,99.90
2017-11-07T22:58:44.832Z,99.90
2017-11-07T23:01:12.384Z,99.90
2017-11-07T23:03:40.669Z,99.90
2017-11-07T23:06:08.979Z,99.90
2017-11-07T23:08:36.496Z,99.90
2017-11-07T23:11:04.001Z,99.90
2017-11-07T23:13:31.544Z,99.90
2017-11-07T23:15:59.057Z,99.90
2017-11-07T23:18:26.577Z,99.90
2017-11-07T23:20:54.117Z,99.90
2017-11-07T23:23:22.398Z,99.90
2017-11-07T23:25:49.910Z,99.90
2017-11-07T23:28:17.477Z,99.90
2017-11-07T23:30:44.991Z,99.90
2017-11-07T23:33:12.509Z,99.90
2017-11-07T23:35:40.048Z,99.90
2017-11-07T23:38:08.329Z,99.90
2017-11-07T23:40:35.858Z,99.90
2017-11-07T23:43:03.375Z,99.90
2017-11-07T23:45:30.894Z,99.90
2017-11-07T23:47:58.481Z,99.90
2017-11-07T23:50:26.002Z,99.90
2017-11-07T23:52:53.614Z,99.90
2017-11-07T23:55:21.141Z,99.90
2017-11-07T23:57:48.653Z,99.90
